createdAt,value
2019-03-10T00:00:55.414Z,8.20
2019-03-10T00:05:00.761Z,8.20
2019-03-10T00:09:07.938Z,8.20
2019-03-10T00:13:13.621Z,8.10
2019-03-10T00:17:19.063Z,8.10
2019-03-10T00:21:24.530Z,8.10
2019-03-10T00:25:30.242Z,8.10
2019-03-10T00:29:36.194Z,8.10
2019-03-10T00:33:41.636Z,8.10
2019-03-10T00:37:47.163Z,8.10
2019-03-10T00:42:33.518Z,8.00
2019-03-10T00:47:30.687Z,8.00
2019-03-10T00:52:10.701Z,8.20
2019-03-10T00:56:16.723Z,8.10
2019-03-10T01:00:22.140Z,8.10
2019-03-10T01:04:27.834Z,8.20
2019-03-10T01:08:33.987Z,8.20
2019-03-10T01:12:39.518Z,8.20
2019-03-10T01:16:45.779Z,8.30
2019-03-10T01:20:52.809Z,8.20
2019-03-10T01:24:58.474Z,8.20
2019-03-10T01:29:04.421Z,8.10
2019-03-10T01:34:10.783Z,8.00
2019-03-10T01:38:16.148Z,8.00
2019-03-10T01:42:21.399Z,8.00
2019-03-10T01:46:26.898Z,8.10
2019-03-10T01:50:32.503Z,8.00
2019-03-10T01:54:38.471Z,8.00
2019-03-10T01:58:43.827Z,8.00
2019-03-10T02:02:49.521Z,8.10
2019-03-10T02:06:55.251Z,8.10
2019-03-10T02:11:01.293Z,8.10
2019-03-10T02:15:07.728Z,8.20
2019-03-10T02:19:13.084Z,8.00
2019-03-10T02:23:18.502Z,7.90
2019-03-10T02:27:23.911Z,7.90
2019-03-10T02:31:29.597Z,7.80
2019-03-10T02:35:35.036Z,7.80
2019-03-10T02:39:40.494Z,7.80
2019-03-10T02:43:45.909Z,7.70
2019-03-10T02:47:51.360Z,7.60
2019-03-10T02:52:12.754Z,7.50
2019-03-10T02:56:18.455Z,7.40
2019-03-10T03:00:23.937Z,7.40
2019-03-10T03:04:29.375Z,7.40
2019-03-10T03:08:34.843Z,7.40
2019-03-10T03:12:40.301Z,7.30
2019-03-10T03:16:46.024Z,7.30
2019-03-10T03:20:51.453Z,7.30
2019-03-10T03:24:56.976Z,7.20
2019-03-10T03:29:02.401Z,7.20
2019-03-10T03:33:08.294Z,7.30
2019-03-10T03:37:17.943Z,7.30
2019-03-10T03:41:23.482Z,7.20
2019-03-10T03:45:28.938Z,7.20
2019-03-10T03:49:34.377Z,7.10
2019-03-10T03:53:39.722Z,7.00
2019-03-10T03:57:45.271Z,6.90
2019-03-10T04:01:57.576Z,6.90
2019-03-10T04:06:03.037Z,6.80
2019-03-10T04:10:08.544Z,6.80
2019-03-10T04:14:14.003Z,6.70
2019-03-10T04:18:19.698Z,6.70
2019-03-10T04:22:25.069Z,6.70
2019-03-10T04:26:30.685Z,6.70
2019-03-10T04:30:36.497Z,6.70
2019-03-10T04:34:41.976Z,6.70
2019-03-10T04:38:47.575Z,6.70
2019-03-10T04:42:53.284Z,6.70
2019-03-10T04:46:58.659Z,6.60
2019-03-10T04:51:04.114Z,6.70
2019-03-10T04:55:19.126Z,6.60
2019-03-10T04:59:27.621Z,6.60
2019-03-10T05:03:32.977Z,6.60
2019-03-10T05:07:38.413Z,6.60
2019-03-10T05:11:43.881Z,6.50
2019-03-10T05:15:49.402Z,6.60
2019-03-10T05:19:54.758Z,6.50
2019-03-10T05:24:06.280Z,6.50
2019-03-10T05:28:11.628Z,6.50
2019-03-10T05:32:17.297Z,6.50
2019-03-10T05:36:22.737Z,6.50
2019-03-10T05:40:28.020Z,6.50
2019-03-10T05:44:33.459Z,6.40
2019-03-10T05:48:38.811Z,6.40
2019-03-10T05:52:44.246Z,6.40
2019-03-10T05:56:49.870Z,6.40
2019-03-10T06:00:55.310Z,6.40
2019-03-10T06:05:00.638Z,6.30
2019-03-10T06:09:07.767Z,6.30
2019-03-10T06:13:13.270Z,6.30
2019-03-10T06:17:21.380Z,6.30
2019-03-10T06:21:26.221Z,6.30
2019-03-10T06:25:34.886Z,6.30
2019-03-10T06:29:38.847Z,6.20
2019-03-10T06:33:44.251Z,6.20
2019-03-10T06:37:49.677Z,6.20
2019-03-10T06:41:54.960Z,6.20
2019-03-10T06:46:00.384Z,6.20
2019-03-10T06:50:06.374Z,6.10
2019-03-10T06:54:11.836Z,6.20
2019-03-10T06:58:17.277Z,6.10
2019-03-10T07:02:22.918Z,6.10
2019-03-10T07:06:28.257Z,6.00
2019-03-10T07:10:33.737Z,6.00
2019-03-10T07:14:39.010Z,6.00
2019-03-10T07:18:44.358Z,6.10
2019-03-10T07:22:49.830Z,6.00
2019-03-10T07:26:55.515Z,6.00
2019-03-10T07:31:18.910Z,6.10
2019-03-10T07:35:51.576Z,6.00
2019-03-10T07:40:28.215Z,6.00
2019-03-10T07:44:41.321Z,6.10
2019-03-10T07:48:59.792Z,6.10
2019-03-10T07:53:22.621Z,6.00
2019-03-10T07:57:49.296Z,6.00
2019-03-10T08:02:22.749Z,6.00
2019-03-10T08:06:53.239Z,6.00
2019-03-10T08:11:18.357Z,6.00
2019-03-10T08:15:42.588Z,6.10
2019-03-10T08:20:02.859Z,6.20
2019-03-10T08:24:36.417Z,6.30
2019-03-10T08:29:10.621Z,6.40
2019-03-10T08:33:33.989Z,6.40
2019-03-10T08:37:50.491Z,6.50
2019-03-10T08:42:19.474Z,6.60
2019-03-10T08:46:24.879Z,6.70
2019-03-10T08:50:40.711Z,6.70
2019-03-10T08:55:01.485Z,6.80
2019-03-10T08:59:26.119Z,7.00
2019-03-10T09:03:50.651Z,7.20
2019-03-10T09:08:32.811Z,7.10
2019-03-10T09:13:06.054Z,7.20
2019-03-10T09:17:33.200Z,7.40
2019-03-10T09:22:09.241Z,7.60
2019-03-10T09:26:52.570Z,7.90
2019-03-10T09:31:17.174Z,8.30
2019-03-10T09:35:28.000Z,8.50
2019-03-10T09:39:42.367Z,8.80
2019-03-10T09:44:00.306Z,8.70
2019-03-10T09:48:18.027Z,9.00
2019-03-10T09:52:36.390Z,9.20
2019-03-10T09:56:49.593Z,9.50
2019-03-10T10:01:32.912Z,9.70
2019-03-10T10:05:49.783Z,10.20
2019-03-10T10:10:02.476Z,10.50
2019-03-10T10:14:29.916Z,10.60
2019-03-10T10:19:00.146Z,10.60
2019-03-10T10:23:14.258Z,10.70
2019-03-10T10:27:39.043Z,10.80
2019-03-10T10:31:59.081Z,11.30
2019-03-10T10:36:21.868Z,11.60
2019-03-10T10:41:01.404Z,11.90
2019-03-10T10:45:17.093Z,12.00
2019-03-10T10:49:35.383Z,12.30
2019-03-10T10:54:05.454Z,12.50
2019-03-10T10:58:27.934Z,12.60
2019-03-10T11:02:50.309Z,12.60
2019-03-10T11:07:07.002Z,12.60
2019-03-10T11:11:43.434Z,12.50
2019-03-10T11:16:06.338Z,12.20
2019-03-10T11:20:20.977Z,11.60
2019-03-10T11:24:45.327Z,11.40
2019-03-10T11:29:02.662Z,11.60
2019-03-10T11:33:27.762Z,12.00
2019-03-10T11:38:04.243Z,11.90
2019-03-10T11:42:19.630Z,11.90
2019-03-10T11:46:43.988Z,12.00
2019-03-10T11:51:06.836Z,12.00
2019-03-10T11:55:28.882Z,11.80
2019-03-10T11:59:39.983Z,12.00
2019-03-10T12:03:51.059Z,12.40
2019-03-10T12:08:15.486Z,12.10
2019-03-10T12:12:20.980Z,11.80
2019-03-10T12:16:26.678Z,11.80
2019-03-10T12:20:32.259Z,12.00
2019-03-10T12:24:37.688Z,12.00
2019-03-10T12:28:43.238Z,11.90
2019-03-10T12:32:48.997Z,11.80
2019-03-10T12:36:54.551Z,11.60
2019-03-10T12:41:00.594Z,10.90
2019-03-10T12:45:06.631Z,10.70
2019-03-10T12:49:12.056Z,10.50
2019-03-10T12:53:17.494Z,10.00
2019-03-10T12:57:22.933Z,9.90
2019-03-10T13:01:29.117Z,9.70
2019-03-10T13:05:34.571Z,9.90
2019-03-10T13:09:39.828Z,10.20
2019-03-10T13:13:45.262Z,10.30
2019-03-10T13:17:50.802Z,10.40
2019-03-10T13:21:59.520Z,10.50
2019-03-10T13:26:09.534Z,10.70
2019-03-10T13:30:15.964Z,10.80
2019-03-10T13:34:22.219Z,10.90
2019-03-10T13:38:27.741Z,10.70
2019-03-10T13:43:00.233Z,10.30
2019-03-10T13:47:05.681Z,10.30
2019-03-10T13:51:11.421Z,10.30
2019-03-10T13:55:17.142Z,10.30
2019-03-10T13:59:22.577Z,10.30
2019-03-10T14:03:28.206Z,10.20
2019-03-10T14:07:33.624Z,10.10
2019-03-10T14:11:39.074Z,10.00
2019-03-10T14:15:44.685Z,9.90
2019-03-10T14:19:50.103Z,9.70
2019-03-10T14:23:55.531Z,9.60
2019-03-10T14:28:00.955Z,9.40
2019-03-10T14:32:06.457Z,9.20
2019-03-10T14:36:11.810Z,9.10
2019-03-10T14:40:17.753Z,9.10
2019-03-10T14:44:23.208Z,9.00
2019-03-10T14:48:28.644Z,9.00
2019-03-10T14:52:34.068Z,9.00
2019-03-10T14:56:39.494Z,8.90
2019-03-10T15:00:44.964Z,8.90
2019-03-10T15:04:50.574Z,8.80
2019-03-10T15:08:56.002Z,8.70
2019-03-10T15:13:01.479Z,8.60
2019-03-10T15:17:06.922Z,8.50
2019-03-10T15:21:12.339Z,8.60
2019-03-10T15:25:17.783Z,8.60
2019-03-10T15:29:23.124Z,8.60
2019-03-10T15:33:28.668Z,8.50
2019-03-10T15:37:34.351Z,8.50
2019-03-10T15:41:40.039Z,8.40
2019-03-10T15:45:45.716Z,8.30
2019-03-10T15:49:51.110Z,8.30
2019-03-10T15:53:56.572Z,8.10
2019-03-10T15:58:03.910Z,8.00
2019-03-10T16:02:09.150Z,7.90
2019-03-10T16:06:14.589Z,7.70
2019-03-10T16:10:20.018Z,7.50
2019-03-10T16:14:25.370Z,7.50
2019-03-10T16:18:30.878Z,7.40
2019-03-10T16:22:36.533Z,7.30
2019-03-10T16:26:42.021Z,7.30
2019-03-10T16:30:47.476Z,7.10
2019-03-10T16:34:52.826Z,6.60
2019-03-10T16:38:58.391Z,6.50
2019-03-10T16:43:03.816Z,6.20
2019-03-10T16:47:09.291Z,6.10
2019-03-10T16:51:14.715Z,6.00
2019-03-10T16:55:20.135Z,6.00
2019-03-10T16:59:25.820Z,5.90
2019-03-10T17:03:31.527Z,5.90
2019-03-10T17:07:36.965Z,5.90
2019-03-10T17:11:42.814Z,5.80
2019-03-10T17:15:48.485Z,5.70
2019-03-10T17:19:54.433Z,5.70
2019-03-10T17:24:00.114Z,5.70
2019-03-10T17:28:05.566Z,5.70
2019-03-10T17:32:11.058Z,5.70
2019-03-10T17:36:16.478Z,5.70
2019-03-10T17:40:21.898Z,5.70
2019-03-10T17:44:27.625Z,5.80
2019-03-10T17:48:33.224Z,5.70
2019-03-10T17:52:38.553Z,5.60
2019-03-10T17:56:43.967Z,5.90
2019-03-10T18:00:49.420Z,5.90
2019-03-10T18:04:54.832Z,6.00
2019-03-10T18:09:00.273Z,6.10
2019-03-10T18:13:05.735Z,6.20
2019-03-10T18:17:11.207Z,6.30
2019-03-10T18:21:16.956Z,6.30
2019-03-10T18:25:22.359Z,6.30
2019-03-10T18:29:27.802Z,6.20
2019-03-10T18:33:33.432Z,6.40
2019-03-10T18:37:38.900Z,6.20
2019-03-10T18:41:44.361Z,6.20
2019-03-10T18:45:49.992Z,6.10
2019-03-10T18:49:55.702Z,6.10
2019-03-10T18:54:01.218Z,5.90
2019-03-10T18:58:06.683Z,5.70
2019-03-10T19:02:12.275Z,5.70
2019-03-10T19:06:17.792Z,5.70
2019-03-10T19:10:23.409Z,5.60
2019-03-10T19:14:28.897Z,5.50
2019-03-10T19:18:34.635Z,5.40
2019-03-10T19:22:40.512Z,5.40
2019-03-10T19:26:46.010Z,5.40
2019-03-10T19:30:51.547Z,5.40
2019-03-10T19:34:57.099Z,5.40
2019-03-10T19:39:02.627Z,5.40
2019-03-10T19:43:08.044Z,5.40
2019-03-10T19:47:13.469Z,5.40
2019-03-10T19:51:19.153Z,4.80
2019-03-10T19:55:24.848Z,4.30
2019-03-10T19:59:30.088Z,3.90
2019-03-10T20:03:36.003Z,3.40
2019-03-10T20:07:41.491Z,3.00
2019-03-10T20:11:47.214Z,2.60
2019-03-10T20:15:52.878Z,2.50
2019-03-10T20:19:58.523Z,2.30
2019-03-10T20:24:04.228Z,2.40
2019-03-10T20:28:09.823Z,2.30
2019-03-10T20:32:15.303Z,2.40
2019-03-10T20:36:20.729Z,2.40
2019-03-10T20:40:26.408Z,2.40
2019-03-10T20:44:31.856Z,2.50
2019-03-10T20:48:37.319Z,2.50
2019-03-10T20:52:42.742Z,2.50
2019-03-10T20:56:48.567Z,2.60
2019-03-10T21:00:54.065Z,2.70
2019-03-10T21:04:59.529Z,2.70
2019-03-10T21:09:06.775Z,2.70
2019-03-10T21:13:12.145Z,2.70
2019-03-10T21:17:18.040Z,2.70
2019-03-10T21:21:23.603Z,2.70
2019-03-10T21:25:29.089Z,2.80
2019-03-10T21:29:34.561Z,2.80
2019-03-10T21:33:39.940Z,2.80
2019-03-10T21:37:45.992Z,2.90
2019-03-10T21:41:51.420Z,3.00
2019-03-10T21:45:56.856Z,3.00
2019-03-10T21:50:02.345Z,3.00
2019-03-10T21:54:07.893Z,3.10
2019-03-10T21:58:13.311Z,3.10
2019-03-10T22:02:18.771Z,3.20
2019-03-10T22:06:24.585Z,3.20
2019-03-10T22:10:30.007Z,3.10
2019-03-10T22:14:35.991Z,3.10
2019-03-10T22:18:41.480Z,3.20
2019-03-10T22:22:49.883Z,3.20
2019-03-10T22:26:54.515Z,3.20
2019-03-10T22:30:59.971Z,3.20
2019-03-10T22:35:06.138Z,3.40
2019-03-10T22:39:11.498Z,3.50
2019-03-10T22:43:16.902Z,3.60
2019-03-10T22:47:22.332Z,3.60
2019-03-10T22:51:27.691Z,3.80
2019-03-10T22:55:33.179Z,4.00
2019-03-10T22:59:38.440Z,4.20
2019-03-10T23:03:43.884Z,4.40
2019-03-10T23:07:49.230Z,4.60
2019-03-10T23:11:55.122Z,4.70
2019-03-10T23:16:00.532Z,4.50
2019-03-10T23:20:08.454Z,4.30
2019-03-10T23:24:14.170Z,4.20
2019-03-10T23:28:19.624Z,4.10
2019-03-10T23:32:25.604Z,4.10
2019-03-10T23:36:30.987Z,4.40
2019-03-10T23:40:36.417Z,4.40
2019-03-10T23:44:41.783Z,4.50
2019-03-10T23:48:47.508Z,4.50
2019-03-10T23:52:52.853Z,4.60
2019-03-10T23:56:58.516Z,4.50
